createdAt,value
2023-08-24T00:01:13.319Z,96978.16
2023-08-24T00:03:42.307Z,96973.06
2023-08-24T00:06:10.416Z,96975.41
2023-08-24T00:08:38.151Z,96956.78
2023-08-24T00:11:06.697Z,96959.97
2023-08-24T00:13:34.519Z,96956.91
2023-08-24T00:16:02.180Z,96954.91
2023-08-24T00:18:31.230Z,96957.97
2023-08-24T00:20:59.242Z,96953.78
2023-08-24T00:23:27.401Z,96961.66
2023-08-24T00:25:54.952Z,96965.19
2023-08-24T00:28:22.511Z,96969.06
2023-08-24T00:30:50.102Z,96968.94
2023-08-24T00:33:17.682Z,96967.38
2023-08-24T00:35:46.615Z,96958.94
2023-08-24T00:38:14.234Z,96962.09
2023-08-24T00:40:43.832Z,96956.31
2023-08-24T00:43:11.423Z,96957.47
2023-08-24T00:45:39.343Z,96953.22
2023-08-24T00:48:07.709Z,96950.41
2023-08-24T00:50:35.821Z,96948.06
2023-08-24T00:53:05.576Z,96947.97
2023-08-24T00:55:34.135Z,96940.19
2023-08-24T00:58:02.011Z,96940.19
2023-08-24T01:00:29.790Z,96941.72
2023-08-24T01:02:57.573Z,96942.09
2023-08-24T01:05:25.709Z,96945.66
2023-08-24T01:07:53.486Z,96951.97
2023-08-24T01:10:22.701Z,96951.16
2023-08-24T01:13:07.418Z,96948.94
2023-08-24T01:15:40.805Z,96943.19
2023-08-24T01:18:16.310Z,96938.25
2023-08-24T01:20:45.736Z,96943.75
2023-08-24T01:23:29.801Z,96940.22
2023-08-24T01:26:06.140Z,96929.44
2023-08-24T01:28:34.320Z,96931.00
2023-08-24T01:31:02.535Z,96938.38
2023-08-24T01:33:30.163Z,96934.47
2023-08-24T01:35:57.793Z,96931.78
2023-08-24T01:38:25.587Z,96930.59
2023-08-24T01:40:59.201Z,96923.63
2023-08-24T01:43:44.031Z,96920.97
2023-08-24T01:46:16.019Z,96913.19
2023-08-24T01:48:45.247Z,96896.53
2023-08-24T01:51:13.989Z,96895.06
2023-08-24T01:53:43.271Z,96889.25
2023-08-24T01:56:12.151Z,96884.16
2023-08-24T01:58:41.600Z,96877.66
2023-08-24T02:01:09.822Z,96881.09
2023-08-24T02:03:37.590Z,96876.44
2023-08-24T02:06:06.242Z,96879.88
2023-08-24T02:08:33.829Z,96891.13
2023-08-24T02:11:01.556Z,96890.44
2023-08-24T02:13:29.512Z,96894.69
2023-08-24T02:16:05.299Z,96892.44
2023-08-24T02:18:33.193Z,96881.19
2023-08-24T02:21:00.829Z,96872.66
2023-08-24T02:23:28.560Z,96869.94
2023-08-24T02:25:58.616Z,96863.03
2023-08-24T02:28:26.379Z,96862.28
2023-08-24T02:30:54.134Z,96864.97
2023-08-24T02:33:23.117Z,96863.41
2023-08-24T02:35:50.728Z,96865.75
2023-08-24T02:38:18.333Z,96865.66
2023-08-24T02:40:46.328Z,96866.34
2023-08-24T02:43:14.282Z,96861.75
2023-08-24T02:45:41.923Z,96865.28
2023-08-24T02:48:10.651Z,96857.16
2023-08-24T02:50:39.680Z,96858.63
2023-08-24T02:53:07.270Z,96848.53
2023-08-24T02:55:35.193Z,96845.94
2023-08-24T02:58:02.792Z,96842.06
2023-08-24T03:00:30.417Z,96831.31
2023-08-24T03:02:58.078Z,96834.44
2023-08-24T03:05:25.984Z,96839.53
2023-08-24T03:07:55.178Z,96836.81
2023-08-24T03:10:22.819Z,96831.41
2023-08-24T03:12:50.522Z,96833.38
2023-08-24T03:15:18.607Z,96836.47
2023-08-24T03:17:46.387Z,96831.84
2023-08-24T03:20:14.975Z,96835.69
2023-08-24T03:22:42.727Z,96839.13
2023-08-24T03:25:11.750Z,96846.50
2023-08-24T03:27:40.083Z,96850.38
2023-08-24T03:30:09.405Z,96844.97
2023-08-24T03:32:37.078Z,96842.97
2023-08-24T03:35:05.216Z,96842.59
2023-08-24T03:37:32.856Z,96836.34
2023-08-24T03:40:00.655Z,96835.59
2023-08-24T03:42:29.699Z,96840.28
2023-08-24T03:44:57.321Z,96830.44
2023-08-24T03:47:24.917Z,96835.97
2023-08-24T03:49:52.640Z,96839.47
2023-08-24T03:52:20.250Z,96835.59
2023-08-24T03:54:48.106Z,96839.09
2023-08-24T03:57:17.380Z,96836.75
2023-08-24T03:59:46.635Z,96834.38
2023-08-24T04:02:14.324Z,96842.13
2023-08-24T04:04:41.902Z,96846.75
2023-08-24T04:07:09.473Z,96836.28
2023-08-24T04:09:37.112Z,96826.94
2023-08-24T04:12:05.095Z,96829.91
2023-08-24T04:14:32.735Z,96818.00
2023-08-24T04:17:01.662Z,96824.50
2023-08-24T04:19:29.226Z,96823.34
2023-08-24T04:21:56.816Z,96821.31
2023-08-24T04:24:26.246Z,96823.28
2023-08-24T04:26:53.968Z,96830.06
2023-08-24T04:29:21.901Z,96830.09
2023-08-24T04:31:49.520Z,96818.63
2023-08-24T04:34:18.487Z,96822.81
2023-08-24T04:36:46.048Z,96827.63
2023-08-24T04:39:13.710Z,96827.50
2023-08-24T04:41:41.300Z,96828.47
2023-08-24T04:44:09.437Z,96838.31
2023-08-24T04:46:37.051Z,96841.84
2023-08-24T04:49:05.057Z,96847.28
2023-08-24T04:51:33.979Z,96847.09
2023-08-24T04:54:01.629Z,96841.28
2023-08-24T04:56:29.233Z,96843.81
2023-08-24T04:58:57.869Z,96852.31
2023-08-24T05:01:26.040Z,96854.81
2023-08-24T05:03:54.005Z,96849.09
2023-08-24T05:06:21.625Z,96842.47
2023-08-24T05:08:50.771Z,96848.28
2023-08-24T05:11:20.362Z,96850.31
2023-08-24T05:13:48.361Z,96851.81
2023-08-24T05:16:16.191Z,96850.97
2023-08-24T05:18:43.863Z,96849.91
2023-08-24T05:21:11.460Z,96845.16
2023-08-24T05:23:39.088Z,96847.28
2023-08-24T05:26:08.205Z,96846.88
2023-08-24T05:28:35.789Z,96848.63
2023-08-24T05:31:03.460Z,96845.19
2023-08-24T05:33:32.166Z,96843.69
2023-08-24T05:36:00.036Z,96845.59
2023-08-24T05:38:27.817Z,96843.41
2023-08-24T05:40:55.487Z,96847.22
2023-08-24T05:43:24.422Z,96847.69
2023-08-24T05:45:52.044Z,96845.75
2023-08-24T05:48:19.690Z,96851.59
2023-08-24T05:50:48.374Z,96845.41
2023-08-24T05:53:16.395Z,96856.41
2023-08-24T05:55:43.975Z,96851.16
2023-08-24T05:58:11.561Z,96854.13
2023-08-24T06:00:40.508Z,96858.63
2023-08-24T06:03:08.210Z,96854.69
2023-08-24T06:05:35.806Z,96859.09
2023-08-24T06:08:03.399Z,96848.78
2023-08-24T06:10:31.971Z,96841.25
2023-08-24T06:12:59.578Z,96836.72
2023-08-24T06:15:29.067Z,96839.47
2023-08-24T06:17:59.993Z,96833.63
2023-08-24T06:20:27.682Z,96839.50
2023-08-24T06:22:56.727Z,96842.16
2023-08-24T06:25:24.352Z,96837.84
2023-08-24T06:27:52.320Z,96839.75
2023-08-24T06:30:20.523Z,96835.47
2023-08-24T06:32:48.128Z,96840.84
2023-08-24T06:35:17.303Z,96842.19
2023-08-24T06:37:45.054Z,96853.88
2023-08-24T06:40:14.300Z,96861.59
2023-08-24T06:42:41.880Z,96865.34
2023-08-24T06:45:11.546Z,96866.34
2023-08-24T06:47:39.405Z,96865.31
2023-08-24T06:50:08.138Z,96864.81
2023-08-24T06:52:37.073Z,96871.00
2023-08-24T06:55:05.286Z,96881.81
2023-08-24T06:57:32.953Z,96870.13
2023-08-24T07:00:01.225Z,96865.44
2023-08-24T07:02:29.468Z,96860.41
2023-08-24T07:04:58.203Z,96867.78
2023-08-24T07:07:26.488Z,96869.47
2023-08-24T07:09:55.503Z,96862.09
2023-08-24T07:12:23.111Z,96859.28
2023-08-24T07:14:50.678Z,96855.81
2023-08-24T07:17:19.120Z,96861.34
2023-08-24T07:19:46.729Z,96853.63
2023-08-24T07:22:14.587Z,96843.25
2023-08-24T07:24:45.810Z,96840.22
2023-08-24T07:27:15.825Z,96836.38
2023-08-24T07:29:43.447Z,96833.88
2023-08-24T07:32:11.166Z,96842.66
2023-08-24T07:34:38.829Z,96832.09
2023-08-24T07:37:06.449Z,96835.75
2023-08-24T07:39:34.616Z,96830.59
2023-08-24T07:42:02.199Z,96837.34
2023-08-24T07:44:31.464Z,96836.34
2023-08-24T07:46:59.053Z,96839.09
2023-08-24T07:49:26.710Z,96830.75
2023-08-24T07:51:54.368Z,96823.84
2023-08-24T07:54:22.523Z,96827.53
2023-08-24T07:56:50.084Z,96823.72
2023-08-24T07:59:17.698Z,96824.31
2023-08-24T08:01:46.736Z,96828.53
2023-08-24T08:04:14.355Z,96826.97
2023-08-24T08:06:41.928Z,96828.25
2023-08-24T08:09:09.556Z,96820.69
2023-08-24T08:11:37.254Z,96826.31
2023-08-24T08:14:04.839Z,96821.66
2023-08-24T08:16:32.854Z,96822.28
2023-08-24T08:19:01.824Z,96814.94
2023-08-24T08:21:30.376Z,96818.72
2023-08-24T08:23:57.950Z,96809.88
2023-08-24T08:26:25.590Z,96808.59
2023-08-24T08:28:53.143Z,96817.41
2023-08-24T08:31:22.397Z,96819.53
2023-08-24T08:33:50.285Z,96829.06
2023-08-24T08:36:19.259Z,96834.91
2023-08-24T08:38:46.863Z,96827.44
2023-08-24T08:41:14.932Z,96821.63
2023-08-24T08:43:43.472Z,96838.44
2023-08-24T08:46:12.847Z,96831.66
2023-08-24T08:48:42.298Z,96830.53
2023-08-24T08:51:11.483Z,96831.28
2023-08-24T08:53:40.614Z,96829.09
2023-08-24T08:56:09.760Z,96828.28
2023-08-24T08:58:38.452Z,96826.91
2023-08-24T09:01:06.926Z,96822.09
2023-08-24T09:03:36.294Z,96822.53
2023-08-24T09:06:03.942Z,96816.94
2023-08-24T09:08:32.324Z,96815.88
2023-08-24T09:11:01.903Z,96816.84
2023-08-24T09:13:29.861Z,96807.09
2023-08-24T09:16:05.475Z,96803.88
2023-08-24T09:18:37.875Z,96794.84
2023-08-24T09:21:10.552Z,96792.91
2023-08-24T09:23:45.059Z,96794.50
2023-08-24T09:26:14.082Z,96797.63
2023-08-24T09:28:44.677Z,96790.09
2023-08-24T09:31:14.214Z,96785.91
2023-08-24T09:33:46.437Z,96779.19
2023-08-24T09:36:16.400Z,96793.59
2023-08-24T09:38:49.871Z,96789.13
2023-08-24T09:41:18.832Z,96782.09
2023-08-24T09:43:46.422Z,96777.50
2023-08-24T09:46:14.016Z,96780.28
2023-08-24T09:48:41.617Z,96779.44
2023-08-24T09:51:10.513Z,96768.13
2023-08-24T09:53:42.084Z,96770.78
2023-08-24T09:56:10.800Z,96774.09
2023-08-24T09:58:39.820Z,96765.91
2023-08-24T10:01:07.770Z,96760.66
2023-08-24T10:03:38.578Z,96759.84
2023-08-24T10:06:09.480Z,96757.25
2023-08-24T10:08:39.112Z,96752.06
2023-08-24T10:11:08.086Z,96747.50
2023-08-24T10:13:42.149Z,96740.09
2023-08-24T10:16:10.951Z,96739.03
2023-08-24T10:18:39.136Z,96736.00
2023-08-24T10:21:07.015Z,96730.03
2023-08-24T10:23:36.453Z,96731.25
2023-08-24T10:26:05.464Z,96720.41
2023-08-24T10:28:34.362Z,96722.09
2023-08-24T10:31:04.617Z,96719.31
2023-08-24T10:33:35.267Z,96717.03
2023-08-24T10:36:06.856Z,96715.03
2023-08-24T10:38:37.536Z,96712.16
2023-08-24T10:41:06.122Z,96706.75
2023-08-24T10:43:37.147Z,96698.31
2023-08-24T10:46:06.575Z,96695.13
2023-08-24T10:48:59.073Z,96680.44
2023-08-24T10:51:27.230Z,96684.06
2023-08-24T10:53:57.489Z,96683.13
2023-08-24T10:56:33.249Z,96681.38
2023-08-24T10:59:15.553Z,96676.78
2023-08-24T11:01:56.758Z,96673.19
2023-08-24T11:04:24.398Z,96680.13
2023-08-24T11:06:56.799Z,96678.09
2023-08-24T11:09:25.611Z,96677.22
2023-08-24T11:12:01.112Z,96675.97
2023-08-24T11:14:31.262Z,96677.03
2023-08-24T11:17:03.495Z,96663.41
2023-08-24T11:19:32.269Z,96662.81
2023-08-24T11:22:00.940Z,96664.97
2023-08-24T11:24:29.584Z,96660.97
2023-08-24T11:26:57.359Z,96663.84
2023-08-24T11:29:27.079Z,96656.22
2023-08-24T11:31:55.233Z,96654.13
2023-08-24T11:34:24.248Z,96643.94
2023-08-24T11:36:52.253Z,96642.72
2023-08-24T11:39:21.585Z,96639.63
2023-08-24T11:42:00.185Z,96632.84
2023-08-24T11:44:29.444Z,96641.22
2023-08-24T11:46:59.275Z,96637.03
2023-08-24T11:49:28.636Z,96623.25
2023-08-24T11:51:56.813Z,96625.53
2023-08-24T11:54:24.447Z,96627.16
2023-08-24T11:56:52.039Z,96625.75
2023-08-24T11:59:19.998Z,96629.16
2023-08-24T12:01:49.124Z,96625.94
2023-08-24T12:04:16.708Z,96630.31
2023-08-24T12:06:45.677Z,96621.66
2023-08-24T12:09:13.366Z,96620.50
2023-08-24T12:11:41.081Z,96615.25
2023-08-24T12:14:19.233Z,96615.16
2023-08-24T12:16:47.245Z,96614.91
2023-08-24T12:19:14.824Z,96609.84
2023-08-24T12:21:47.506Z,96606.75
2023-08-24T12:24:16.460Z,96599.19
2023-08-24T12:26:44.234Z,96594.75
2023-08-24T12:29:11.908Z,96601.94
2023-08-24T12:31:45.097Z,96598.97
2023-08-24T12:34:12.708Z,96585.91
2023-08-24T12:36:42.356Z,96585.78
2023-08-24T12:39:14.280Z,96583.91
2023-08-24T12:41:41.863Z,96574.53
2023-08-24T12:44:11.708Z,96562.66
2023-08-24T12:46:40.478Z,96573.00
2023-08-24T12:49:08.177Z,96561.88
2023-08-24T12:51:35.748Z,96557.97
2023-08-24T12:54:03.414Z,96552.50
2023-08-24T12:56:32.473Z,96549.97
2023-08-24T12:59:00.102Z,96544.88
2023-08-24T13:01:27.926Z,96546.97
2023-08-24T13:03:55.524Z,96544.19
2023-08-24T13:06:25.015Z,96532.88
2023-08-24T13:08:53.227Z,96522.31
2023-08-24T13:11:21.037Z,96522.59
2023-08-24T13:13:50.156Z,96518.84
2023-08-24T13:16:17.868Z,96523.16
2023-08-24T13:18:45.560Z,96518.06
2023-08-24T13:21:14.008Z,96512.09
2023-08-24T13:23:42.605Z,96491.19
2023-08-24T13:26:20.105Z,96491.91
2023-08-24T13:28:47.953Z,96487.75
2023-08-24T13:31:17.020Z,96482.31
2023-08-24T13:33:44.650Z,96477.44
2023-08-24T13:36:12.238Z,96479.19
2023-08-24T13:38:39.823Z,96479.72
2023-08-24T13:41:07.373Z,96482.44
2023-08-24T13:43:34.981Z,96476.13
2023-08-24T13:46:04.582Z,96468.97
2023-08-24T13:48:34.937Z,96466.91
2023-08-24T13:51:02.820Z,96461.09
2023-08-24T13:53:30.528Z,96459.16
2023-08-24T13:55:58.138Z,96460.66
2023-08-24T13:58:25.700Z,96451.00
2023-08-24T14:00:57.195Z,96455.09
2023-08-24T14:03:24.915Z,96447.38
2023-08-24T14:05:58.329Z,96448.25
2023-08-24T14:08:26.101Z,96434.19
2023-08-24T14:10:53.922Z,96437.78
2023-08-24T14:13:22.292Z,96432.03
2023-08-24T14:15:50.920Z,96429.63
2023-08-24T14:18:18.836Z,96428.56
2023-08-24T14:20:46.404Z,96426.06
2023-08-24T14:23:15.485Z,96412.81
2023-08-24T14:25:43.144Z,96408.41
2023-08-24T14:28:11.620Z,96396.44
2023-08-24T14:30:41.086Z,96394.91
2023-08-24T14:33:08.973Z,96394.84
2023-08-24T14:35:37.087Z,96382.19
2023-08-24T14:38:05.158Z,96385.84
2023-08-24T14:40:34.318Z,96382.47
2023-08-24T14:43:02.028Z,96371.31
2023-08-24T14:45:30.044Z,96373.78
2023-08-24T14:47:58.078Z,96381.50
2023-08-24T14:50:26.085Z,96371.69
2023-08-24T14:52:55.030Z,96367.59
2023-08-24T14:55:22.676Z,96370.50
2023-08-24T14:57:54.027Z,96366.19
2023-08-24T15:00:22.107Z,96355.78
2023-08-24T15:02:49.787Z,96357.34
2023-08-24T15:05:18.168Z,96355.19
2023-08-24T15:07:46.715Z,96352.84
2023-08-24T15:10:14.352Z,96356.13
2023-08-24T15:12:42.073Z,96354.47
2023-08-24T15:15:11.846Z,96351.28
2023-08-24T15:17:39.554Z,96362.81
2023-08-24T15:20:08.334Z,96358.63
2023-08-24T15:22:37.341Z,96360.84
2023-08-24T15:25:05.886Z,96354.25
2023-08-24T15:27:33.446Z,96359.44
2023-08-24T15:30:02.085Z,96367.34
2023-08-24T15:32:31.098Z,96361.97
2023-08-24T15:34:58.680Z,96364.03
2023-08-24T15:37:26.266Z,96368.28
2023-08-24T15:39:53.838Z,96373.75
2023-08-24T15:42:21.424Z,96366.56
2023-08-24T15:44:49.103Z,96367.91
2023-08-24T15:47:16.711Z,96362.66
2023-08-24T15:49:45.753Z,96349.88
2023-08-24T15:52:13.369Z,96342.16
2023-08-24T15:54:40.983Z,96350.97
2023-08-24T15:57:09.434Z,96344.13
2023-08-24T15:59:37.059Z,96349.09
2023-08-24T16:02:05.708Z,96331.31
2023-08-24T16:04:33.322Z,96333.53
2023-08-24T16:07:02.241Z,96338.31
2023-08-24T16:09:29.824Z,96351.59
2023-08-24T16:11:57.395Z,96345.41
2023-08-24T16:14:25.107Z,96339.75
2023-08-24T16:16:53.645Z,96347.38
2023-08-24T16:19:22.397Z,96352.94
2023-08-24T16:21:49.977Z,96358.84
2023-08-24T16:24:18.934Z,96370.44
2023-08-24T16:26:46.483Z,96387.81
2023-08-24T16:29:14.167Z,96384.22
2023-08-24T16:31:41.806Z,96382.19
2023-08-24T16:34:09.532Z,96382.41
2023-08-24T16:36:37.326Z,96365.41
2023-08-24T16:39:05.116Z,96368.34
2023-08-24T16:41:34.291Z,96361.94
2023-08-24T16:44:01.853Z,96358.00
2023-08-24T16:46:30.899Z,96353.00
2023-08-24T16:48:58.511Z,96348.34
2023-08-24T16:51:27.003Z,96342.88
2023-08-24T16:53:54.575Z,96346.16
2023-08-24T16:56:22.151Z,96350.28
2023-08-24T16:58:51.146Z,96347.75
2023-08-24T17:01:18.768Z,96349.44
2023-08-24T17:03:46.558Z,96359.50
2023-08-24T17:06:14.221Z,96354.00
2023-08-24T17:08:41.811Z,96346.81
2023-08-24T17:11:09.394Z,96342.16
2023-08-24T17:13:36.963Z,96345.28
2023-08-24T17:16:07.116Z,96343.41
2023-08-24T17:18:35.215Z,96362.63
2023-08-24T17:21:04.623Z,96379.03
2023-08-24T17:23:32.260Z,96376.44
2023-08-24T17:26:00.060Z,96347.13
2023-08-24T17:28:28.763Z,96308.28
2023-08-24T17:30:56.376Z,96314.09
2023-08-24T17:33:25.588Z,96332.78
2023-08-24T17:35:54.124Z,96335.25
2023-08-24T17:38:22.310Z,96318.81
2023-08-24T17:40:49.900Z,96312.28
2023-08-24T17:43:17.460Z,96319.22
2023-08-24T17:45:45.045Z,96341.88
2023-08-24T17:48:12.676Z,96355.09
2023-08-24T17:50:42.375Z,96356.47
2023-08-24T17:53:11.110Z,96362.75
2023-08-24T17:55:38.657Z,96367.41
2023-08-24T17:58:06.272Z,96384.69
2023-08-24T18:00:33.843Z,96435.34
2023-08-24T18:03:01.523Z,96591.94
2023-08-24T18:05:29.175Z,96596.59
2023-08-24T18:07:58.320Z,96643.50
2023-08-24T18:10:25.885Z,96649.44
2023-08-24T18:12:53.457Z,96647.81
2023-08-24T18:15:31.930Z,96621.25
2023-08-24T18:18:01.444Z,96586.88
2023-08-24T18:20:29.121Z,96571.88
2023-08-24T18:22:58.599Z,96554.97
2023-08-24T18:25:26.931Z,96566.00
2023-08-24T18:27:55.624Z,96551.94
2023-08-24T18:30:23.551Z,96545.09
2023-08-24T18:32:51.224Z,96549.59
2023-08-24T18:35:19.678Z,96548.84
2023-08-24T18:37:47.375Z,96533.41
2023-08-24T18:40:16.339Z,96579.63
2023-08-24T18:42:43.896Z,96577.25
2023-08-24T18:45:11.996Z,96582.34
2023-08-24T18:47:40.654Z,96633.28
2023-08-24T18:50:08.731Z,96640.88
2023-08-24T18:52:36.304Z,96587.84
2023-08-24T18:55:04.039Z,96593.75
2023-08-24T18:57:33.031Z,96607.78
2023-08-24T19:00:00.623Z,96621.69
2023-08-24T19:02:28.314Z,96675.94
2023-08-24T19:04:56.038Z,96704.16
2023-08-24T19:07:23.633Z,96691.00
2023-08-24T19:09:51.216Z,96698.41
2023-08-24T19:12:18.808Z,96746.53
2023-08-24T19:14:47.745Z,96764.50
2023-08-24T19:17:15.317Z,96782.09
2023-08-24T19:19:42.890Z,96815.47
2023-08-24T19:22:10.482Z,96838.44
2023-08-24T19:24:38.071Z,96860.72
2023-08-24T19:27:06.125Z,96882.59
2023-08-24T19:29:33.695Z,96867.66
2023-08-24T19:32:02.628Z,96897.06
2023-08-24T19:34:30.280Z,96902.59
2023-08-24T19:36:57.853Z,96895.25
2023-08-24T19:39:25.419Z,96907.38
2023-08-24T19:41:59.785Z,96908.22
2023-08-24T19:44:28.121Z,96916.03
2023-08-24T19:46:55.736Z,96925.47
2023-08-24T19:49:24.947Z,96928.75
2023-08-24T19:51:52.806Z,96923.34
2023-08-24T19:54:20.617Z,96918.56
2023-08-24T19:56:48.301Z,96914.47
2023-08-24T19:59:15.987Z,96910.22
2023-08-24T20:01:43.848Z,96893.81
2023-08-24T20:04:11.568Z,96893.97
2023-08-24T20:06:41.455Z,96887.16
2023-08-24T20:09:13.188Z,96884.44
2023-08-24T20:11:40.904Z,96885.69
2023-08-24T20:14:09.590Z,96894.84
2023-08-24T20:16:37.150Z,96891.38
2023-08-24T20:19:04.993Z,96895.31
2023-08-24T20:21:33.873Z,96887.25
2023-08-24T20:24:02.783Z,96879.41
2023-08-24T20:26:30.359Z,96868.19
2023-08-24T20:28:57.969Z,96863.06
2023-08-24T20:31:25.605Z,96856.91
2023-08-24T20:33:53.226Z,96863.22
2023-08-24T20:36:20.797Z,96863.81
2023-08-24T20:38:48.351Z,96851.53
2023-08-24T20:41:17.282Z,96837.38
2023-08-24T20:43:46.335Z,96828.44
2023-08-24T20:46:13.993Z,96824.84
2023-08-24T20:48:41.578Z,96807.63
2023-08-24T20:51:09.171Z,96798.25
2023-08-24T20:53:36.726Z,96784.94
2023-08-24T20:56:04.948Z,96774.03
2023-08-24T20:58:33.880Z,96760.72
2023-08-24T21:01:06.330Z,96752.19
2023-08-24T21:03:34.126Z,96733.97
2023-08-24T21:06:01.840Z,96725.84
2023-08-24T21:08:29.638Z,96719.56
2023-08-24T21:10:59.518Z,96712.13
2023-08-24T21:13:27.131Z,96713.41
2023-08-24T21:16:00.409Z,96716.88
2023-08-24T21:18:28.048Z,96706.03
2023-08-24T21:20:59.732Z,96727.25
2023-08-24T21:23:27.532Z,96714.66
2023-08-24T21:25:55.134Z,96726.81
2023-08-24T21:28:22.693Z,96722.22
2023-08-24T21:30:50.519Z,96728.59
2023-08-24T21:33:19.909Z,96750.16
2023-08-24T21:35:47.486Z,96777.56
2023-08-24T21:38:15.060Z,96794.69
2023-08-24T21:40:42.753Z,96815.03
2023-08-24T21:43:10.311Z,96830.34
2023-08-24T21:45:37.966Z,96844.53
2023-08-24T21:48:06.637Z,96822.41
2023-08-24T21:50:37.100Z,96799.28
2023-08-24T21:53:05.168Z,96775.13
2023-08-24T21:55:37.522Z,96776.44
2023-08-24T21:58:05.594Z,96765.19
2023-08-24T22:00:33.348Z,96765.00
2023-08-24T22:03:00.988Z,96744.22
2023-08-24T22:05:28.646Z,96729.56
2023-08-24T22:07:57.611Z,96740.63
2023-08-24T22:10:25.294Z,96746.25
2023-08-24T22:12:52.949Z,96747.25
2023-08-24T22:15:20.522Z,96748.47
2023-08-24T22:17:48.230Z,96745.47
2023-08-24T22:20:18.669Z,96754.56
2023-08-24T22:22:46.241Z,96759.81
2023-08-24T22:25:15.158Z,96758.47
2023-08-24T22:27:42.732Z,96734.09
2023-08-24T22:30:11.569Z,96710.41
2023-08-24T22:32:39.190Z,96699.25
2023-08-24T22:35:08.186Z,96701.63
2023-08-24T22:37:36.457Z,96710.41
2023-08-24T22:40:10.320Z,96726.88
2023-08-24T22:42:39.385Z,96732.88
2023-08-24T22:45:08.292Z,96790.09
2023-08-24T22:47:35.109Z,96843.19
2023-08-24T22:50:07.637Z,96866.66
2023-08-24T22:52:35.260Z,96838.13
2023-08-24T22:55:03.651Z,96798.59
2023-08-24T22:57:31.452Z,96771.78
2023-08-24T23:00:00.511Z,96757.00
2023-08-24T23:02:28.219Z,96746.81
2023-08-24T23:04:55.912Z,96723.91
2023-08-24T23:07:23.695Z,96706.97
2023-08-24T23:09:51.293Z,96713.25
2023-08-24T23:12:22.461Z,96740.84
2023-08-24T23:14:50.506Z,96766.53
2023-08-24T23:17:19.826Z,96794.81
2023-08-24T23:19:47.481Z,96792.28
2023-08-24T23:22:15.572Z,96792.00
2023-08-24T23:24:51.349Z,96778.41
2023-08-24T23:27:19.537Z,96725.63
2023-08-24T23:29:48.209Z,96687.78
2023-08-24T23:32:17.699Z,96684.09
2023-08-24T23:34:46.914Z,96682.69
2023-08-24T23:37:14.447Z,96691.84
2023-08-24T23:39:42.086Z,96656.13
2023-08-24T23:42:09.671Z,96661.78
2023-08-24T23:44:37.233Z,96645.84
2023-08-24T23:47:05.130Z,96618.06
2023-08-24T23:49:32.821Z,96590.16
2023-08-24T23:52:01.807Z,96592.56
2023-08-24T23:54:29.410Z,96588.38
2023-08-24T23:56:57.036Z,96572.19
2023-08-24T23:59:24.619Z,96585.16
